Time;durP1;ratioP1;P1;durP2;ratioP2;P2;SDS_P1;SDS_P2;PMS_P1;PMS_P2;Temp;Humidity;BMP_temperature;BMP_pressure;BME280_temperature;BME280_humidity;BME280_pressure;Samples;Min_cycle;Max_cycle;Signal;HPM_P1;HPM_P2
2022/08/28 00:01:40;;;;;;;;;7.00;7.00;;;;;22.97;32.05;101187.88;5123788;27;45254;-61
2022/08/28 00:04:06;;;;;;;;;9.50;9.50;;;;;22.96;32.16;101194.19;5123508;27;45436;-61
2022/08/28 00:06:31;;;;;;;;;9.25;9.00;;;;;22.92;32.57;101189.97;5123909;27;45206;-61
2022/08/28 00:08:57;;;;;;;;;8.50;8.50;;;;;22.90;32.63;101191.88;5123520;27;45195;-61
2022/08/28 00:11:23;;;;;;;;;10.25;8.50;;;;;22.87;32.59;101192.06;5122023;27;48302;-61
2022/08/28 00:13:49;;;;;;;;;13.25;10.50;;;;;22.84;32.60;101187.75;5122341;27;45492;-61
2022/08/28 00:16:16;;;;;;;;;10.25;9.25;;;;;22.78;32.43;101185.44;5123856;27;45328;-61
2022/08/28 00:18:42;;;;;;;;;10.50;9.25;;;;;22.80;32.76;101191.53;5123250;27;45457;-61
2022/08/28 00:21:09;;;;;;;;;10.25;8.25;;;;;22.76;32.57;101184.66;5104870;27;47252;-61
2022/08/28 00:23:34;;;;;;;;;11.00;8.00;;;;;22.72;32.55;101186.66;5123361;27;45270;-61
2022/08/28 00:26:00;;;;;;;;;13.00;10.00;;;;;22.70;32.93;101185.88;5123198;27;45181;-61
2022/08/28 00:28:25;;;;;;;;;10.50;10.50;;;;;22.66;32.57;101184.31;5123011;27;45452;-61
2022/08/28 00:30:54;;;;;;;;;10.25;10.00;;;;;22.64;32.76;101191.59;5104904;27;45252;-61
2022/08/28 00:33:27;;;;;;;;;9.00;9.00;;;;;22.61;32.64;101190.91;5123108;27;45315;-61
2022/08/28 00:35:54;;;;;;;;;10.00;8.00;;;;;22.59;33.01;101190.13;5123432;27;45430;-61
2022/08/28 00:38:21;;;;;;;;;8.00;8.00;;;;;22.55;33.15;101194.78;5122618;27;45376;-61
2022/08/28 00:40:50;;;;;;;;;8.00;8.00;;;;;22.52;33.00;101195.84;5104436;27;46233;-61
2022/08/28 00:43:32;;;;;;;;;9.50;9.50;;;;;22.51;32.93;101193.25;5104317;27;45859;-61
2022/08/28 00:45:58;;;;;;;;;9.50;8.25;;;;;22.48;32.87;101199.66;5123007;27;45251;-61
2022/08/28 00:48:23;;;;;;;;;11.00;11.00;;;;;22.46;32.81;101192.66;5122764;27;45442;-61
2022/08/28 00:53:33;;;;;;;;;10.75;10.00;;;;;22.40;32.87;101193.84;5123076;27;45230;-61
2022/08/28 00:56:01;;;;;;;;;10.50;10.50;;;;;22.38;33.64;101193.09;5122615;27;45312;-60
2022/08/28 00:58:27;;;;;;;;;10.25;9.50;;;;;22.35;33.17;101194.09;5122842;27;45462;-61
2022/08/28 01:00:53;;;;;;;;;10.75;10.75;;;;;22.33;33.07;101196.00;5122506;27;46521;-61
2022/08/28 01:03:18;;;;;;;;;10.50;10.50;;;;;22.31;33.14;101197.03;5122519;27;45313;-61
2022/08/28 01:05:46;;;;;;;;;9.75;9.75;;;;;22.28;33.70;101200.75;5122729;27;45252;-61
2022/08/28 01:08:12;;;;;;;;;10.50;9.00;;;;;22.25;33.50;101198.25;5122848;27;45308;-61
2022/08/28 01:10:41;;;;;;;;;11.00;10.50;;;;;22.23;33.63;101192.13;5103721;27;46966;-61
2022/08/28 01:13:07;;;;;;;;;11.75;11.50;;;;;22.20;33.80;101194.94;5122580;27;45333;-61
2022/08/28 01:15:37;;;;;;;;;9.00;8.75;;;;;22.13;33.50;101181.06;5122713;27;45473;-61
2022/08/28 01:18:06;;;;;;;;;12.00;11.00;;;;;22.15;34.01;101189.00;5122643;27;45420;-61
2022/08/28 01:20:34;;;;;;;;;8.75;8.25;;;;;22.09;33.93;101184.84;5122340;27;45262;-61
2022/08/28 01:23:13;;;;;;;;;8.75;8.75;;;;;22.07;33.49;101189.41;5122293;27;45309;-61
2022/08/28 01:25:40;;;;;;;;;9.50;9.50;;;;;22.07;33.83;101192.09;5122375;27;45276;-61
2022/08/28 01:28:09;;;;;;;;;9.25;9.25;;;;;22.04;33.94;101186.94;5120776;27;45230;-61
2022/08/28 01:30:35;;;;;;;;;10.50;9.25;;;;;22.01;33.97;101187.97;5122088;27;47187;-61
2022/08/28 01:33:00;;;;;;;;;8.50;7.00;;;;;21.99;34.09;101178.31;5122138;27;45306;-61
2022/08/28 01:35:30;;;;;;;;;10.25;8.75;;;;;21.96;33.73;101173.09;5122416;27;45270;-61
2022/08/28 01:37:56;;;;;;;;;10.00;9.00;;;;;21.92;33.74;101175.97;5122006;27;45430;-61
2022/08/28 01:40:26;;;;;;;;;10.00;9.50;;;;;21.90;33.79;101182.34;5121399;27;45275;-61
2022/08/28 01:42:53;;;;;;;;;9.50;9.50;;;;;21.86;34.06;101170.06;5103581;27;45380;-61
2022/08/28 01:45:19;;;;;;;;;10.25;10.00;;;;;21.85;34.28;101171.03;5122202;27;45245;-61
2022/08/28 01:47:46;;;;;;;;;9.50;9.50;;;;;21.82;34.50;101166.69;5120783;27;45515;-61
2022/08/28 01:50:15;;;;;;;;;12.25;10.75;;;;;21.81;33.85;101165.00;5121753;27;46246;-61
2022/08/28 01:52:41;;;;;;;;;8.75;8.50;;;;;21.78;34.23;101156.25;5121734;27;45346;-61
2022/08/28 01:55:07;;;;;;;;;11.00;9.50;;;;;21.74;34.69;101153.75;5122018;27;45391;-61
2022/08/28 01:57:33;;;;;;;;;7.75;7.00;;;;;21.71;34.75;101164.63;5121633;27;45540;-61
2022/08/28 01:59:59;;;;;;;;;8.25;8.25;;;;;21.69;34.41;101169.19;5121933;27;45300;-61
2022/08/28 02:02:24;;;;;;;;;7.75;7.75;;;;;21.58;34.80;101147.50;5121582;27;45386;-61
2022/08/28 02:04:51;;;;;;;;;7.50;7.25;;;;;21.62;34.75;101173.13;5122148;27;45236;-61
2022/08/28 02:07:16;;;;;;;;;8.50;8.00;;;;;21.58;34.65;101166.22;5121542;27;45333;-61
2022/08/28 02:09:42;;;;;;;;;7.75;7.75;;;;;21.57;34.85;101164.50;5121833;27;45241;-62
2022/08/28 02:12:08;;;;;;;;;9.25;8.50;;;;;21.54;34.71;101161.97;5121320;27;45479;-61
2022/08/28 02:14:34;;;;;;;;;7.00;7.00;;;;;21.53;34.81;101165.56;5121641;27;45226;-61
2022/08/28 02:16:59;;;;;;;;;7.50;7.50;;;;;21.51;34.81;101171.00;5121410;27;45390;-61
2022/08/28 02:19:24;;;;;;;;;9.75;7.00;;;;;21.47;34.78;101171.25;5121694;27;45332;-61
2022/08/28 02:21:50;;;;;;;;;6.50;6.50;;;;;21.44;35.03;101172.28;5120156;27;45300;-61
2022/08/28 02:24:15;;;;;;;;;8.50;8.50;;;;;21.44;34.80;101174.94;5121772;27;45471;-61
2022/08/28 02:26:42;;;;;;;;;7.25;6.25;;;;;21.42;34.94;101177.72;5102571;27;45905;-61
2022/08/28 02:29:07;;;;;;;;;7.50;7.50;;;;;21.39;35.14;101175.19;5119939;27;46917;-60
2022/08/28 02:31:33;;;;;;;;;10.50;9.50;;;;;21.39;35.09;101179.69;5119951;27;45237;-60
2022/08/28 02:33:58;;;;;;;;;9.00;9.00;;;;;21.33;35.37;101172.84;5121580;27;45236;-60
2022/08/28 02:36:24;;;;;;;;;8.00;7.25;;;;;21.33;35.55;101185.34;5102230;27;47037;-60
2022/08/28 02:38:51;;;;;;;;;9.00;7.00;;;;;21.30;35.66;101183.69;5102661;27;46809;-60
2022/08/28 02:41:16;;;;;;;;;8.75;7.00;;;;;21.26;35.83;101185.66;5121046;27;45257;-60
2022/08/28 02:43:42;;;;;;;;;7.50;6.75;;;;;21.24;35.26;101181.34;5121311;27;45426;-60
2022/08/28 02:46:07;;;;;;;;;5.75;5.00;;;;;21.21;35.67;101176.19;5121248;27;45326;-61
2022/08/28 02:48:35;;;;;;;;;6.25;6.25;;;;;21.20;36.00;101183.31;5119868;27;48413;-60
2022/08/28 02:51:04;;;;;;;;;8.25;7.00;;;;;21.17;35.33;101180.81;5121011;27;45314;-61
2022/08/28 02:53:30;;;;;;;;;8.50;8.50;;;;;21.15;35.37;101171.16;5121276;27;45299;-61
2022/08/28 02:55:55;;;;;;;;;8.50;8.50;;;;;21.11;35.50;101171.28;5120681;27;45520;-61
2022/08/28 02:58:21;;;;;;;;;6.00;5.00;;;;;21.09;35.89;101167.84;5120810;27;45409;-60
2022/08/28 03:00:48;;;;;;;;;11.50;9.75;;;;;21.07;35.95;101166.22;5120844;27;45237;-60
2022/08/28 03:03:14;;;;;;;;;12.25;10.75;;;;;21.05;36.29;101162.72;5121296;27;45465;-60
2022/08/28 03:05:39;;;;;;;;;13.75;10.00;;;;;21.02;36.27;101161.09;5120736;27;45354;-60
2022/08/28 03:08:05;;;;;;;;;10.00;10.00;;;;;20.99;36.00;101171.91;5121064;27;45380;-60
2022/08/28 03:10:30;;;;;;;;;17.00;12.25;;;;;20.95;36.04;101157.00;5120374;27;45273;-60
2022/08/28 03:12:55;;;;;;;;;8.50;8.50;;;;;20.94;36.32;101164.16;5119743;27;45452;-60
2022/08/28 03:15:21;;;;;;;;;10.50;9.00;;;;;20.92;36.33;101167.84;5120681;27;45430;-60
2022/08/28 03:17:47;;;;;;;;;10.75;9.00;;;;;20.90;36.41;101172.41;5120829;27;46071;-60
2022/08/28 03:20:14;;;;;;;;;8.25;8.25;;;;;20.88;36.01;101166.25;5120715;27;45382;-60
2022/08/28 03:25:24;;;;;;;;;6.00;6.00;;;;;20.81;36.74;101164.88;5120441;27;45310;-60
2022/08/28 03:27:51;;;;;;;;;7.75;6.00;;;;;20.78;36.20;101164.06;5120398;27;45381;-59
2022/08/28 03:30:18;;;;;;;;;6.25;5.25;;;;;20.76;36.83;101165.94;5120473;27;45216;-60
2022/08/28 03:32:43;;;;;;;;;8.50;7.75;;;;;20.72;36.40;101166.19;5120780;27;45491;-60
2022/08/28 03:35:09;;;;;;;;;7.75;7.00;;;;;20.69;36.78;101159.16;5120399;27;45648;-60
2022/08/28 03:37:35;;;;;;;;;11.00;9.00;;;;;20.68;36.53;101161.88;5120335;27;46086;-59
2022/08/28 03:40:00;;;;;;;;;10.00;9.25;;;;;20.67;36.50;101163.72;5102115;27;45345;-60
2022/08/28 03:42:26;;;;;;;;;10.75;8.00;;;;;20.65;36.47;101157.56;5120551;27;45507;-60
2022/08/28 03:44:53;;;;;;;;;8.00;7.00;;;;;20.62;37.14;101165.75;5120587;27;46405;-60
2022/08/28 03:47:19;;;;;;;;;6.25;6.25;;;;;20.53;37.16;101156.38;5121000;27;46160;-60
2022/08/28 03:49:44;;;;;;;;;7.00;7.00;;;;;20.57;36.74;101165.97;5123893;27;45219;-60
2022/08/28 03:52:10;;;;;;;;;9.25;8.75;;;;;20.57;36.86;101160.63;5124077;27;45211;-60
2022/08/28 03:54:35;;;;;;;;;9.75;9.00;;;;;20.53;36.85;101155.53;5123966;27;45246;-60
2022/08/28 03:57:01;;;;;;;;;6.50;6.50;;;;;20.52;37.43;101156.47;5123697;27;45479;-60
2022/08/28 03:59:27;;;;;;;;;8.00;6.50;;;;;20.52;36.98;101157.31;5123639;27;45297;-61
2022/08/28 04:01:53;;;;;;;;;9.75;6.75;;;;;20.48;36.96;101157.53;5124068;27;45434;-61
2022/08/28 04:04:19;;;;;;;;;5.50;5.50;;;;;20.49;36.79;101167.28;5123224;27;45508;-61
2022/08/28 04:06:44;;;;;;;;;6.25;6.25;;;;;20.48;37.43;101168.22;5123595;27;46310;-61
2022/08/28 04:09:10;;;;;;;;;8.00;7.00;;;;;20.45;37.32;101167.44;5123486;27;45283;-61
2022/08/28 04:11:41;;;;;;;;;6.75;6.00;;;;;20.44;37.16;101160.38;5122264;27;45368;-61
2022/08/28 04:14:07;;;;;;;;;9.75;8.75;;;;;20.42;37.63;101167.59;5123576;27;45234;-61
2022/08/28 04:16:32;;;;;;;;;7.25;6.50;;;;;20.40;37.17;101173.94;5123812;27;45581;-61
2022/08/28 04:18:58;;;;;;;;;10.00;9.75;;;;;20.39;37.63;101172.19;5122928;27;45343;-61
2022/08/28 04:21:25;;;;;;;;;9.00;8.50;;;;;20.36;37.82;101173.22;5123566;27;45314;-61
2022/08/28 04:23:51;;;;;;;;;9.00;9.00;;;;;20.35;37.83;101173.28;5123498;27;45472;-61
2022/08/28 04:26:20;;;;;;;;;7.25;7.00;;;;;20.32;37.40;101168.97;5123049;27;46347;-61
2022/08/28 04:28:47;;;;;;;;;7.00;7.00;;;;;20.30;37.83;101177.06;5123169;27;45222;-61
2022/08/28 04:31:12;;;;;;;;;7.75;7.75;;;;;20.28;38.01;101168.25;5123393;27;45222;-61
2022/08/28 04:33:38;;;;;;;;;11.25;8.00;;;;;20.22;37.81;101160.53;5123226;27;45351;-61
2022/08/28 04:36:06;;;;;;;;;4.75;4.25;;;;;20.23;38.06;101172.94;5122641;27;45325;-61
2022/08/28 04:38:32;;;;;;;;;8.75;7.50;;;;;20.21;38.10;101168.63;5104414;27;45421;-61
2022/08/28 04:40:57;;;;;;;;;6.00;5.00;;;;;20.18;37.99;101174.13;5122932;27;45323;-61
2022/08/28 04:43:23;;;;;;;;;9.75;8.00;;;;;20.13;38.30;101177.00;5123074;27;45196;-61
2022/08/28 04:45:48;;;;;;;;;7.50;6.25;;;;;20.14;37.96;101176.91;5122981;27;45976;-61
2022/08/28 04:48:14;;;;;;;;;10.75;8.50;;;;;20.12;38.32;101176.16;5123198;27;45168;-61
2022/08/28 04:50:44;;;;;;;;;9.00;8.00;;;;;20.10;38.26;101191.34;5123141;27;45285;-61
2022/08/28 04:53:10;;;;;;;;;11.25;8.25;;;;;20.10;37.91;101187.78;5123123;27;45349;-61
2022/08/28 04:55:44;;;;;;;;;9.25;7.75;;;;;20.05;38.01;101187.16;5121154;27;46236;-61
2022/08/28 04:58:10;;;;;;;;;9.75;9.00;;;;;20.06;38.53;101189.78;5122293;27;45410;-61
2022/08/28 05:00:37;;;;;;;;;8.25;8.00;;;;;20.06;38.56;101195.09;5122820;27;45264;-61
2022/08/28 05:03:03;;;;;;;;;10.00;7.50;;;;;20.04;38.17;101191.63;5122796;27;45249;-61
2022/08/28 05:05:29;;;;;;;;;10.75;9.25;;;;;20.02;38.10;101195.31;5122422;27;46424;-61
2022/08/28 05:07:54;;;;;;;;;9.50;7.50;;;;;20.01;38.34;101196.25;5122792;27;45214;-61
2022/08/28 05:10:19;;;;;;;;;8.25;6.50;;;;;19.96;38.77;101189.34;5122474;27;45246;-61
2022/08/28 05:12:45;;;;;;;;;6.50;6.50;;;;;19.97;38.34;101190.19;5122734;27;45436;-61
2022/08/28 05:15:10;;;;;;;;;12.75;10.50;;;;;19.95;38.83;101192.06;5120801;27;52586;-61
2022/08/28 05:17:36;;;;;;;;;9.00;7.25;;;;;19.92;38.66;101185.09;5122514;27;45218;-61
2022/08/28 05:20:01;;;;;;;;;9.25;9.25;;;;;19.93;38.62;101197.47;5122602;27;45428;-61
2022/08/28 05:22:29;;;;;;;;;5.75;5.25;;;;;19.83;38.95;101188.16;5122609;27;45464;-61
2022/08/28 05:24:55;;;;;;;;;6.50;6.50;;;;;19.89;38.92;101197.69;5122081;27;45349;-61
2022/08/28 05:27:22;;;;;;;;;9.25;9.00;;;;;19.89;38.61;101211.88;5122285;27;45352;-61
2022/08/28 05:29:49;;;;;;;;;11.50;9.00;;;;;19.88;38.91;101215.47;5122442;27;45266;-61
2022/08/28 05:32:14;;;;;;;;;13.00;8.75;;;;;19.87;39.17;101216.41;5122318;27;45465;-61
2022/08/28 05:34:40;;;;;;;;;8.00;6.75;;;;;19.84;38.72;101215.72;5122299;27;45235;-61
2022/08/28 05:37:07;;;;;;;;;8.00;7.00;;;;;19.85;39.03;101223.63;5121998;27;45330;-61
2022/08/28 05:39:33;;;;;;;;;7.50;7.50;;;;;19.81;39.17;101220.19;5122386;27;45343;-61
2022/08/28 05:41:58;;;;;;;;;10.75;8.75;;;;;19.83;39.38;101219.31;5121828;27;45571;-61
2022/08/28 05:44:24;;;;;;;;;9.50;8.50;;;;;19.83;39.43;101217.50;5121920;27;45385;-61
2022/08/28 05:46:49;;;;;;;;;7.00;7.00;;;;;19.80;39.53;101221.13;5122118;27;45400;-61
2022/08/28 05:49:18;;;;;;;;;7.75;7.50;;;;;19.83;39.49;101232.63;5121865;27;45624;-61
2022/08/28 05:51:44;;;;;;;;;9.00;9.00;;;;;19.81;39.48;101230.88;5122107;27;45161;-61
2022/08/28 05:54:10;;;;;;;;;7.00;6.75;;;;;19.80;39.13;101223.78;5121843;27;45303;-61
2022/08/28 05:56:37;;;;;;;;;11.00;8.00;;;;;19.81;39.40;101230.00;5121723;27;45343;-61
2022/08/28 05:59:05;;;;;;;;;8.00;8.00;;;;;19.79;39.90;101227.38;5121699;27;45272;-61
2022/08/28 06:01:34;;;;;;;;;8.50;8.00;;;;;19.80;39.67;101226.47;5121770;27;45274;-61
2022/08/28 06:04:00;;;;;;;;;10.50;8.25;;;;;19.80;39.70;101234.47;5121506;27;46189;-61
2022/08/28 06:06:29;;;;;;;;;9.00;8.25;;;;;19.80;39.86;101226.47;5121785;27;45164;-61
2022/08/28 06:09:00;;;;;;;;;9.50;8.75;;;;;19.81;39.70;101230.00;5121690;27;45344;-61
2022/08/28 06:11:27;;;;;;;;;10.00;10.00;;;;;19.79;39.55;101219.41;5120631;27;45468;-61
2022/08/28 06:13:53;;;;;;;;;7.50;7.50;;;;;19.78;39.76;101225.66;5121254;27;45488;-61
2022/08/28 06:16:19;;;;;;;;;11.00;8.75;;;;;19.79;40.32;101232.72;5103143;27;45477;-61
2022/08/28 06:18:45;;;;;;;;;8.00;6.50;;;;;19.78;39.93;101225.66;5121683;27;45301;-61
2022/08/28 06:21:10;;;;;;;;;11.75;8.00;;;;;19.77;40.20;101231.06;5103290;27;45383;-61
2022/08/28 06:23:36;;;;;;;;;7.00;7.00;;;;;19.80;40.32;101229.13;5120947;27;45319;-61
2022/08/28 06:26:04;;;;;;;;;10.00;10.00;;;;;19.78;40.03;101236.31;5121396;27;45243;-61
2022/08/28 06:28:30;;;;;;;;;8.00;7.00;;;;;19.78;40.36;101231.00;5120146;27;45273;-61
2022/08/28 06:30:55;;;;;;;;;8.00;7.00;;;;;19.79;40.48;101231.88;5121338;27;45512;-61
2022/08/28 06:33:22;;;;;;;;;7.00;7.00;;;;;19.80;40.49;101237.13;5121303;27;45286;-61
2022/08/28 06:35:51;;;;;;;;;7.00;7.00;;;;;19.81;40.54;101236.19;5121565;27;45213;-61
2022/08/28 06:38:18;;;;;;;;;9.50;7.00;;;;;19.81;40.76;101238.00;5119637;27;45252;-61
2022/08/28 06:40:47;;;;;;;;;8.00;8.00;;;;;19.84;40.20;101235.22;5120988;27;45269;-61
2022/08/28 06:43:14;;;;;;;;;7.25;6.50;;;;;19.80;40.27;101226.47;5119690;27;48343;-61
2022/08/28 06:45:43;;;;;;;;;7.00;7.00;;;;;19.87;40.53;101234.22;5121071;27;45294;-61
2022/08/28 06:48:11;;;;;;;;;7.50;7.50;;;;;19.89;40.97;101237.69;5121447;27;45352;-61
2022/08/28 06:50:42;;;;;;;;;8.00;8.00;;;;;19.90;41.03;101239.41;5120996;27;45390;-61
2022/08/28 06:53:10;;;;;;;;;10.75;9.50;;;;;19.92;40.77;101238.44;5121282;27;45362;-61
2022/08/28 06:55:36;;;;;;;;;8.00;8.00;;;;;19.95;40.95;101237.41;5120820;27;45270;-61
2022/08/28 06:58:04;;;;;;;;;6.50;6.00;;;;;19.97;40.62;101238.19;5121126;27;45229;-61
2022/08/28 07:00:30;;;;;;;;;9.75;7.75;;;;;20.01;40.72;101241.59;5120841;27;45532;-61
2022/08/28 07:02:55;;;;;;;;;10.25;9.00;;;;;20.04;40.98;101242.31;5120862;27;46239;-61
2022/08/28 07:05:21;;;;;;;;;12.25;8.00;;;;;20.04;40.74;101242.31;5120854;27;45544;-61
2022/08/28 07:07:47;;;;;;;;;7.50;6.25;;;;;20.08;40.53;101243.91;5102602;27;45426;-61
2022/08/28 07:10:12;;;;;;;;;11.75;8.50;;;;;20.12;41.16;101242.84;5120430;27;45556;-61
2022/08/28 07:12:38;;;;;;;;;7.75;7.25;;;;;20.14;40.79;101246.28;5121088;27;45770;-61
2022/08/28 07:15:05;;;;;;;;;7.00;7.00;;;;;20.18;40.86;101248.81;5120777;27;46105;-61
2022/08/28 07:17:30;;;;;;;;;8.00;8.00;;;;;20.19;41.02;101245.19;5120841;27;45351;-61
2022/08/28 07:19:56;;;;;;;;;11.50;9.25;;;;;20.22;40.91;101255.75;5120607;27;45201;-61
2022/08/28 07:22:21;;;;;;;;;10.25;8.00;;;;;20.17;40.85;101236.41;5122961;27;45227;-61
2022/08/28 07:24:47;;;;;;;;;9.00;7.50;;;;;20.28;40.97;101250.97;5124092;27;45318;-61
2022/08/28 07:27:13;;;;;;;;;15.25;15.25;;;;;20.30;41.15;101248.22;5122957;27;45515;-61
2022/08/28 07:29:39;;;;;;;;;9.00;8.00;;;;;20.36;41.12;101245.28;5122761;27;45404;-61
2022/08/28 07:32:04;;;;;;;;;10.50;8.00;;;;;20.40;40.73;101254.88;5105673;27;46058;-61
2022/08/28 07:34:29;;;;;;;;;9.75;8.50;;;;;20.44;41.22;101251.13;5124186;27;45333;-61
2022/08/28 07:37:02;;;;;;;;;7.50;7.00;;;;;20.49;40.90;101258.91;5122877;27;45318;-61
2022/08/28 07:39:28;;;;;;;;;10.50;9.00;;;;;20.54;41.19;101256.00;5124044;27;45196;-61
2022/08/28 07:41:53;;;;;;;;;9.50;9.00;;;;;20.59;41.23;101256.66;5123726;27;46085;-61
2022/08/28 07:47:05;;;;;;;;;13.00;8.25;;;;;20.68;41.42;101260.69;5124420;27;45434;-61
2022/08/28 07:49:32;;;;;;;;;7.25;6.25;;;;;20.72;41.47;101265.84;5122480;27;45381;-61
2022/08/28 07:51:58;;;;;;;;;9.00;6.50;;;;;20.77;41.35;101263.81;5123997;27;45272;-61
2022/08/28 07:54:23;;;;;;;;;11.00;8.00;;;;;20.82;40.97;101268.06;5123662;27;45226;-61
2022/08/28 07:56:49;;;;;;;;;10.25;8.00;;;;;20.87;41.11;101269.56;5123822;27;45361;-61
2022/08/28 07:59:16;;;;;;;;;6.50;6.00;;;;;20.93;41.63;101266.59;5123409;27;45445;-61
2022/08/28 08:01:43;;;;;;;;;14.25;11.00;;;;;20.99;41.21;101268.09;5105305;27;47130;-61
2022/08/28 08:04:11;;;;;;;;;10.50;8.00;;;;;21.06;40.99;101271.34;5123530;27;45366;-61
2022/08/28 08:06:39;;;;;;;;;7.75;7.00;;;;;21.09;41.25;101269.38;5123740;27;45380;-61
2022/08/28 08:09:09;;;;;;;;;6.50;6.50;;;;;21.15;41.37;101267.34;5123452;27;45257;-61
2022/08/28 08:11:35;;;;;;;;;8.75;6.75;;;;;21.19;41.11;101272.44;5123273;27;46105;-61
2022/08/28 08:14:03;;;;;;;;;7.50;7.50;;;;;21.26;41.00;101270.34;5123343;27;46246;-61
2022/08/28 08:16:30;;;;;;;;;9.00;9.00;;;;;21.32;41.42;101263.78;5123744;27;45238;-62
2022/08/28 08:18:56;;;;;;;;;9.00;8.00;;;;;21.35;41.12;101272.53;5123582;27;45492;-62
2022/08/28 08:21:22;;;;;;;;;13.75;10.50;;;;;21.42;41.43;101271.28;5123492;27;45282;-62
2022/08/28 08:23:48;;;;;;;;;11.00;9.75;;;;;21.48;41.44;101283.44;5123278;27;45271;-61
2022/08/28 08:26:17;;;;;;;;;11.00;9.25;;;;;21.54;41.19;101274.25;5123315;27;45516;-61
2022/08/28 08:28:44;;;;;;;;;8.75;6.75;;;;;21.58;41.06;101274.06;5123294;27;45306;-61
2022/08/28 08:31:09;;;;;;;;;13.00;9.00;;;;;21.64;40.63;101270.19;5123097;27;46358;-61
2022/08/28 08:33:37;;;;;;;;;10.75;10.00;;;;;21.70;41.21;101275.22;5121266;27;45405;-65
2022/08/28 08:36:04;;;;;;;;;8.50;8.50;;;;;21.77;41.59;101274.88;5123392;27;45379;-61
2022/08/28 08:38:30;;;;;;;;;7.50;7.50;;;;;21.80;41.34;101269.38;5122956;27;45318;-61
2022/08/28 08:40:59;;;;;;;;;9.00;9.00;;;;;21.87;41.21;101276.13;5122754;27;46247;-61
2022/08/28 08:43:29;;;;;;;;;11.75;11.75;;;;;21.94;41.09;101274.84;5122993;27;45239;-62
2022/08/28 08:45:55;;;;;;;;;10.50;10.25;;;;;22.03;41.00;101282.38;5121756;27;45323;-61
2022/08/28 08:48:28;;;;;;;;;11.00;9.25;;;;;22.11;41.46;101278.44;5123169;27;45425;-61
2022/08/28 08:50:58;;;;;;;;;10.50;10.00;;;;;22.16;41.40;101269.22;5122895;27;45488;-62
2022/08/28 08:53:27;;;;;;;;;9.00;9.00;;;;;22.27;41.17;101271.28;5122697;27;45233;-61
2022/08/28 08:55:55;;;;;;;;;11.00;9.50;;;;;22.34;41.09;101279.81;5122723;27;45208;-61
2022/08/28 08:58:30;;;;;;;;;9.50;9.50;;;;;22.43;41.11;101279.38;5122670;27;45261;-61
2022/08/28 09:01:15;;;;;;;;;6.25;6.25;;;;;22.50;41.11;101275.41;5104140;27;46069;-61
2022/08/28 09:03:53;;;;;;;;;11.50;8.50;;;;;22.60;41.20;101274.88;5122565;27;45345;-61
2022/08/28 09:06:43;;;;;;;;;10.75;9.25;;;;;22.69;40.67;101274.34;5121545;27;45232;-61
2022/08/28 09:09:32;;;;;;;;;9.00;9.00;;;;;22.78;40.65;101276.53;5122367;27;45545;-61
2022/08/28 09:12:02;;;;;;;;;12.00;12.00;;;;;22.87;40.46;101264.41;5109235;27;46381;-62
2022/08/28 09:14:49;;;;;;;;;12.25;8.50;;;;;22.87;40.92;101257.22;5122492;27;45536;-61
2022/08/28 09:17:18;;;;;;;;;13.25;11.00;;;;;23.07;40.81;101268.59;5122557;27;45291;-62
2022/08/28 09:19:44;;;;;;;;;11.25;9.00;;;;;23.18;40.71;101265.31;5122657;27;45310;-61
2022/08/28 09:22:09;;;;;;;;;13.75;13.75;;;;;23.29;40.68;101267.38;5122306;27;46309;-61
2022/08/28 09:24:38;;;;;;;;;14.50;12.00;;;;;23.39;40.76;101263.16;5122401;27;45234;-60
2022/08/28 09:27:05;;;;;;;;;24.50;21.50;;;;;23.51;40.78;101261.59;5122515;27;45358;-61
2022/08/28 09:29:38;;;;;;;;;18.75;15.25;;;;;23.62;40.72;101271.63;5122090;27;45248;-61
2022/08/28 09:32:32;;;;;;;;;16.00;16.00;;;;;23.74;40.53;101267.38;5103883;27;48507;-61
2022/08/28 09:35:11;;;;;;;;;16.00;14.75;;;;;23.85;40.60;101251.47;5122147;27;45440;-61
2022/08/28 09:37:37;;;;;;;;;12.75;12.75;;;;;23.96;40.20;101253.50;5122164;27;45353;-62
2022/08/28 09:40:20;;;;;;;;;12.50;11.50;;;;;24.09;40.50;101258.97;5103569;27;45862;-62
2022/08/28 09:46:05;;;;;;;;;21.50;18.50;;;;;24.30;40.44;101243.28;5121095;27;45253;-61
2022/08/28 09:48:39;;;;;;;;;16.25;13.50;;;;;24.47;40.44;101251.13;5103748;27;45347;-61
2022/08/28 09:51:11;;;;;;;;;14.00;11.50;;;;;24.60;40.27;101258.38;5121886;27;45165;-61
2022/08/28 09:54:01;;;;;;;;;12.25;11.00;;;;;24.73;39.99;101250.41;5122020;27;46301;-61
2022/08/28 09:56:32;;;;;;;;;11.75;11.75;;;;;24.86;40.14;101253.16;5073877;27;45448;-61
2022/08/28 09:59:20;;;;;;;;;14.00;12.25;;;;;24.99;39.98;101252.22;5121721;27;45417;-61
2022/08/28 10:01:46;;;;;;;;;11.00;10.00;;;;;25.13;39.46;101258.47;5103455;27;45426;-61
2022/08/28 10:04:14;;;;;;;;;11.50;11.25;;;;;25.25;39.35;101252.28;5121543;27;46657;-61
2022/08/28 10:06:43;;;;;;;;;13.75;12.50;;;;;25.37;39.37;101253.31;5121393;27;45455;-61
2022/08/28 10:09:08;;;;;;;;;11.00;9.25;;;;;25.52;39.72;101250.50;5121695;27;45255;-61
2022/08/28 10:11:36;;;;;;;;;10.50;10.00;;;;;25.66;39.12;101255.81;5121437;27;45541;-61
2022/08/28 10:14:17;;;;;;;;;11.75;11.75;;;;;25.80;39.49;101250.31;5121528;27;47228;-61
2022/08/28 10:16:56;;;;;;;;;14.50;12.00;;;;;25.94;39.42;101243.94;5121332;27;45263;-61
2022/08/28 10:19:27;;;;;;;;;10.25;10.25;;;;;26.11;38.67;101249.97;5120383;27;45245;-61
2022/08/28 10:22:18;;;;;;;;;12.25;9.00;;;;;26.28;39.06;101244.22;5121467;27;45326;-60
2022/08/28 10:25:00;;;;;;;;;12.50;11.25;;;;;26.44;38.22;101243.97;5121035;27;45512;-60
2022/08/28 10:27:31;;;;;;;;;9.00;8.50;;;;;26.66;38.99;101255.00;5121336;27;45410;-61
2022/08/28 10:29:59;;;;;;;;;10.25;9.00;;;;;26.84;38.88;101242.88;5121307;27;45258;-61
2022/08/28 10:32:49;;;;;;;;;9.00;8.25;;;;;27.03;38.21;101242.34;5121813;27;45191;-61
2022/08/28 10:35:21;;;;;;;;;10.25;9.00;;;;;27.21;38.24;101242.75;5121433;27;45355;-61
2022/08/28 10:38:12;;;;;;;;;10.75;9.50;;;;;27.39;38.66;101243.19;5120964;27;45225;-61
2022/08/28 10:40:40;;;;;;;;;11.00;9.75;;;;;27.56;37.78;101244.56;5117277;27;45341;-60
2022/08/28 10:43:15;;;;;;;;;8.25;7.25;;;;;27.73;37.72;101237.88;5120993;27;45523;-60
2022/08/28 10:45:41;;;;;;;;;11.75;11.75;;;;;27.90;37.75;101241.06;5102663;27;46312;-60
2022/08/28 10:48:17;;;;;;;;;10.75;9.50;;;;;28.09;37.79;101243.16;5102539;27;45336;-60
2022/08/28 10:50:52;;;;;;;;;10.50;10.00;;;;;28.25;37.60;101250.00;5121260;27;45265;-60
2022/08/28 10:53:28;;;;;;;;;8.50;8.00;;;;;28.42;37.72;101245.94;5121302;27;45247;-60
2022/08/28 10:56:01;;;;;;;;;7.75;7.75;;;;;28.55;37.14;101235.81;5120770;27;45398;-60
2022/08/28 10:58:29;;;;;;;;;10.00;8.00;;;;;28.72;37.17;101242.56;5124653;27;45249;-60
2022/08/28 11:00:59;;;;;;;;;11.75;9.75;;;;;28.85;36.94;101247.78;5124666;27;45402;-60
2022/08/28 11:03:29;;;;;;;;;8.25;7.50;;;;;28.97;37.27;101248.63;5124615;27;45642;-60
2022/08/28 11:06:10;;;;;;;;;7.25;7.25;;;;;29.08;36.66;101234.16;5124727;27;45562;-60
2022/08/28 11:08:38;;;;;;;;;9.00;9.00;;;;;29.25;36.61;101239.00;5124618;27;45231;-60
2022/08/28 11:11:11;;;;;;;;;10.75;10.25;;;;;29.48;36.64;101244.28;5124383;27;45477;-61
2022/08/28 11:13:42;;;;;;;;;10.25;10.00;;;;;29.87;37.15;101240.94;5124227;27;46296;-60
2022/08/28 11:16:17;;;;;;;;;11.75;10.50;;;;;30.26;36.75;101243.81;5124429;27;46097;-61
2022/08/28 11:18:59;;;;;;;;;9.00;9.00;;;;;30.62;36.38;101249.63;5124376;27;45314;-61
2022/08/28 11:21:30;;;;;;;;;8.00;6.50;;;;;30.85;35.84;101246.63;5124559;27;45480;-61
2022/08/28 11:24:04;;;;;;;;;8.00;8.00;;;;;31.00;35.64;101244.34;5124512;27;45224;-62
2022/08/28 11:26:55;;;;;;;;;12.00;9.00;;;;;31.12;35.31;101245.94;5123714;27;45218;-61
2022/08/28 11:30:07;;;;;;;;;11.25;10.00;;;;;31.16;35.27;101241.06;5122127;27;45524;-61
2022/08/28 11:32:32;;;;;;;;;12.00;10.75;;;;;31.16;34.80;101244.66;5124190;27;45310;-62
2022/08/28 11:35:24;;;;;;;;;9.75;9.75;;;;;31.18;34.69;101239.06;5123429;27;45223;-62
2022/08/28 11:37:52;;;;;;;;;7.25;7.25;;;;;31.19;34.47;101238.91;5123697;27;45346;-62